createdAt,value
2018-08-22T00:00:41.174Z,11.73
2018-08-22T00:03:09.404Z,10.60
2018-08-22T00:05:37.654Z,11.80
2018-08-22T00:08:06.202Z,14.40
2018-08-22T00:10:34.480Z,16.30
2018-08-22T00:13:02.749Z,13.57
2018-08-22T00:15:31.007Z,17.67
2018-08-22T00:17:59.249Z,20.00
2018-08-22T00:20:27.486Z,15.57
2018-08-22T00:22:55.763Z,16.53
2018-08-22T00:25:24.075Z,17.70
2018-08-22T00:27:52.296Z,13.13
2018-08-22T00:30:20.529Z,15.67
2018-08-22T00:32:48.794Z,20.53
2018-08-22T00:35:17.015Z,17.40
2018-08-22T00:37:45.246Z,16.20
2018-08-22T00:40:13.526Z,15.57
2018-08-22T00:42:41.743Z,15.57
2018-08-22T00:45:10.007Z,20.43
2018-08-22T00:47:38.287Z,20.70
2018-08-22T00:50:06.532Z,18.40
2018-08-22T00:52:34.754Z,11.90
2018-08-22T00:55:03.164Z,12.87
2018-08-22T00:57:31.383Z,11.30
2018-08-22T00:59:59.709Z,13.37
2018-08-22T01:02:27.943Z,10.47
2018-08-22T01:04:56.195Z,13.17
2018-08-22T01:07:24.477Z,10.03
2018-08-22T01:09:52.720Z,14.90
2018-08-22T01:12:20.956Z,9.40
2018-08-22T01:14:49.291Z,12.10
2018-08-22T01:17:17.511Z,11.77
2018-08-22T01:19:45.749Z,8.97
2018-08-22T01:22:13.975Z,9.50
2018-08-22T01:24:42.243Z,8.10
2018-08-22T01:27:14.738Z,11.00
2018-08-22T01:29:42.947Z,6.83
2018-08-22T01:32:11.211Z,9.77
2018-08-22T01:34:39.429Z,7.87
2018-08-22T01:37:07.650Z,9.77
2018-08-22T01:39:35.850Z,12.60
2018-08-22T01:42:04.103Z,8.93
2018-08-22T01:44:32.328Z,10.83
2018-08-22T01:47:00.555Z,15.93
2018-08-22T01:49:28.827Z,12.20
2018-08-22T01:51:57.046Z,11.30
2018-08-22T01:54:25.490Z,11.73
2018-08-22T01:56:53.719Z,9.53
2018-08-22T01:59:21.974Z,10.87
2018-08-22T02:01:50.214Z,10.03
2018-08-22T02:04:18.455Z,8.83
2018-08-22T02:06:46.702Z,9.37
2018-08-22T02:09:14.942Z,8.53
2018-08-22T02:11:43.183Z,10.07
2018-08-22T02:14:12.078Z,8.70
2018-08-22T02:16:40.412Z,9.40
2018-08-22T02:19:09.582Z,10.33
2018-08-22T02:21:44.210Z,10.90
2018-08-22T02:24:12.613Z,11.10
2018-08-22T02:26:40.903Z,8.13
2018-08-22T02:29:09.131Z,9.30
2018-08-22T02:31:37.378Z,12.00
2018-08-22T02:34:05.655Z,11.03
2018-08-22T02:36:33.923Z,11.00
2018-08-22T02:39:02.168Z,9.73
2018-08-22T02:41:30.415Z,10.17
2018-08-22T02:43:58.668Z,10.00
2018-08-22T02:46:26.896Z,10.50
2018-08-22T02:48:56.223Z,10.67
2018-08-22T02:51:27.895Z,17.43
2018-08-22T02:53:56.218Z,9.87
2018-08-22T02:56:24.483Z,9.90
2018-08-22T02:58:52.711Z,8.57
2018-08-22T03:01:20.962Z,9.07
2018-08-22T03:03:49.171Z,9.20
2018-08-22T03:06:17.394Z,9.20
2018-08-22T03:08:45.648Z,10.03
2018-08-22T03:11:13.847Z,9.23
2018-08-22T03:13:42.074Z,9.00
2018-08-22T03:16:10.354Z,9.87
2018-08-22T03:18:38.543Z,9.70
2018-08-22T03:21:06.767Z,8.40
2018-08-22T03:23:35.179Z,8.63
2018-08-22T03:26:03.444Z,7.27
2018-08-22T03:28:31.636Z,12.77
2018-08-22T03:30:59.864Z,12.30
2018-08-22T03:33:28.084Z,8.13
2018-08-22T03:35:56.331Z,17.27
2018-08-22T03:38:24.546Z,7.13
2018-08-22T03:40:52.766Z,7.60
2018-08-22T03:43:21.047Z,7.50
2018-08-22T03:45:49.268Z,11.30
2018-08-22T03:48:17.683Z,9.73
2018-08-22T03:50:45.950Z,10.53
2018-08-22T03:53:14.211Z,8.23
2018-08-22T03:55:42.392Z,8.07
2018-08-22T03:58:10.735Z,11.10
2018-08-22T04:00:38.942Z,11.13
2018-08-22T04:03:07.159Z,12.90
2018-08-22T04:05:35.391Z,9.30
2018-08-22T04:08:03.595Z,9.13
2018-08-22T04:10:31.823Z,8.40
2018-08-22T04:13:00.011Z,9.57
2018-08-22T04:15:28.335Z,7.90
2018-08-22T04:17:56.548Z,10.37
2018-08-22T04:20:24.759Z,7.83
2018-08-22T04:22:52.978Z,11.10
2018-08-22T04:25:21.172Z,11.80
2018-08-22T04:27:49.391Z,7.17
2018-08-22T04:30:17.600Z,18.60
2018-08-22T04:32:45.819Z,8.13
2018-08-22T04:35:14.052Z,9.77
2018-08-22T04:37:42.270Z,10.00
2018-08-22T04:40:10.551Z,7.90
2018-08-22T04:42:38.779Z,6.83
2018-08-22T04:45:07.032Z,9.70
2018-08-22T04:47:35.259Z,9.30
2018-08-22T04:50:03.503Z,6.90
2018-08-22T04:52:31.727Z,7.03
2018-08-22T04:54:59.940Z,12.53
2018-08-22T04:57:28.171Z,9.00
2018-08-22T04:59:56.386Z,7.80
2018-08-22T05:02:24.634Z,9.93
2018-08-22T05:04:52.840Z,7.73
2018-08-22T05:07:21.095Z,11.53
2018-08-22T05:09:49.295Z,10.80
2018-08-22T05:12:17.527Z,10.73
2018-08-22T05:14:45.753Z,9.27
2018-08-22T05:17:13.982Z,10.30
2018-08-22T05:19:42.166Z,8.30
2018-08-22T05:22:10.387Z,15.97
2018-08-22T05:24:38.740Z,11.23
2018-08-22T05:27:06.940Z,10.30
2018-08-22T05:29:35.228Z,21.50
2018-08-22T05:32:03.415Z,10.27
2018-08-22T05:34:31.649Z,11.80
2018-08-22T05:36:59.926Z,10.83
2018-08-22T05:39:28.120Z,12.13
2018-08-22T05:41:56.391Z,13.17
2018-08-22T05:44:24.678Z,19.53
2018-08-22T05:46:52.896Z,11.77
2018-08-22T05:49:21.112Z,11.30
2018-08-22T05:51:50.291Z,10.07
2018-08-22T05:54:18.547Z,11.70
2018-08-22T05:56:46.791Z,13.93
2018-08-22T05:59:15.089Z,11.97
2018-08-22T06:01:43.348Z,12.70
2018-08-22T06:04:11.659Z,11.50
2018-08-22T06:06:39.887Z,17.40
2018-08-22T06:09:09.784Z,12.00
2018-08-22T06:11:38.037Z,12.30
2018-08-22T06:14:06.559Z,19.13
2018-08-22T06:16:34.749Z,23.00
2018-08-22T06:19:02.975Z,24.23
2018-08-22T06:21:31.182Z,19.23
2018-08-22T06:23:59.375Z,22.03
2018-08-22T06:26:27.832Z,16.47
2018-08-22T06:28:56.082Z,16.27
2018-08-22T06:31:24.321Z,25.83
2018-08-22T06:33:52.531Z,17.40
2018-08-22T06:36:20.818Z,23.10
2018-08-22T06:38:48.993Z,15.07
2018-08-22T06:41:17.203Z,16.80
2018-08-22T06:43:45.591Z,17.77
2018-08-22T06:46:14.155Z,17.50
2018-08-22T06:48:42.334Z,18.77
2018-08-22T06:51:10.564Z,18.00
2018-08-22T06:53:38.812Z,20.03
2018-08-22T06:56:07.060Z,24.33
2018-08-22T06:58:35.280Z,19.33
2018-08-22T07:01:03.467Z,33.63
2018-08-22T07:03:31.891Z,18.80
2018-08-22T07:06:00.090Z,26.53
2018-08-22T07:08:28.348Z,26.43
2018-08-22T07:10:56.543Z,25.73
2018-08-22T07:13:24.928Z,32.53
2018-08-22T07:15:53.183Z,25.90
2018-08-22T07:18:21.398Z,19.37
2018-08-22T07:20:49.683Z,21.83
2018-08-22T07:23:17.996Z,23.30
2018-08-22T07:25:46.263Z,28.93
2018-08-22T07:28:14.488Z,19.30
2018-08-22T07:30:42.703Z,20.63
2018-08-22T07:33:10.911Z,27.87
2018-08-22T07:35:39.188Z,21.40
2018-08-22T07:38:07.372Z,26.00
2018-08-22T07:40:35.743Z,22.10
2018-08-22T07:43:03.978Z,17.47
2018-08-22T07:45:32.866Z,19.23
2018-08-22T07:48:01.084Z,20.10
2018-08-22T07:50:29.287Z,24.93
2018-08-22T07:53:02.839Z,21.10
2018-08-22T07:55:33.929Z,19.30
2018-08-22T07:58:02.199Z,19.90
2018-08-22T08:00:30.384Z,24.13
2018-08-22T08:02:58.846Z,23.23
2018-08-22T08:05:27.224Z,18.40
2018-08-22T08:07:55.394Z,17.00
2018-08-22T08:10:29.014Z,19.13
2018-08-22T08:12:57.219Z,25.20
2018-08-22T08:15:25.455Z,14.33
2018-08-22T08:17:53.762Z,18.87
2018-08-22T08:20:22.220Z,16.27
2018-08-22T08:22:50.485Z,18.93
2018-08-22T08:25:18.884Z,20.07
2018-08-22T08:27:47.152Z,17.20
2018-08-22T08:30:15.354Z,21.03
2018-08-22T08:32:43.911Z,21.43
2018-08-22T08:35:12.305Z,23.47
2018-08-22T08:37:40.519Z,22.50
2018-08-22T08:40:08.785Z,20.87
2018-08-22T08:42:36.988Z,24.93
2018-08-22T08:45:07.891Z,27.50
2018-08-22T08:47:36.104Z,25.33
2018-08-22T08:50:04.343Z,21.97
2018-08-22T08:52:32.603Z,24.90
2018-08-22T08:55:00.842Z,30.07
2018-08-22T08:57:29.120Z,22.33
2018-08-22T08:59:57.280Z,34.47
2018-08-22T09:02:25.466Z,26.87
2018-08-22T09:04:53.775Z,24.83
2018-08-22T09:07:22.119Z,28.13
2018-08-22T09:09:50.419Z,27.70
2018-08-22T09:12:18.821Z,20.77
2018-08-22T09:14:46.947Z,36.43
2018-08-22T09:17:15.222Z,26.70
2018-08-22T09:19:43.460Z,25.60
2018-08-22T09:22:11.702Z,23.70
2018-08-22T09:24:39.959Z,22.00
2018-08-22T09:27:08.166Z,21.57
2018-08-22T09:29:36.496Z,22.87
2018-08-22T09:32:04.634Z,24.37
2018-08-22T09:34:32.890Z,20.03
2018-08-22T09:37:01.150Z,24.50
2018-08-22T09:39:29.460Z,18.63
2018-08-22T09:41:57.628Z,25.30
2018-08-22T09:44:25.865Z,21.30
2018-08-22T09:46:54.367Z,18.20
2018-08-22T09:49:22.686Z,16.47
2018-08-22T09:51:50.900Z,20.60
2018-08-22T09:54:19.127Z,18.60
2018-08-22T09:56:47.376Z,20.03
2018-08-22T09:59:15.628Z,13.97
2018-08-22T10:01:44.972Z,17.50
2018-08-22T10:04:13.274Z,15.60
2018-08-22T10:06:44.749Z,20.77
2018-08-22T10:09:14.914Z,26.90
2018-08-22T10:11:43.256Z,15.53
2018-08-22T10:14:11.775Z,19.60
2018-08-22T10:16:40.048Z,20.10
2018-08-22T10:19:08.459Z,16.73
2018-08-22T10:21:36.718Z,23.53
2018-08-22T10:24:04.973Z,23.77
2018-08-22T10:26:33.237Z,28.33
2018-08-22T10:29:01.421Z,25.77
2018-08-22T10:31:29.633Z,23.77
2018-08-22T10:33:57.960Z,24.77
2018-08-22T10:36:26.190Z,21.80
2018-08-22T10:38:54.411Z,19.00
2018-08-22T10:41:22.644Z,20.93
2018-08-22T10:43:50.850Z,21.37
2018-08-22T10:46:19.083Z,21.23
2018-08-22T10:48:47.291Z,25.83
2018-08-22T10:51:15.523Z,28.20
2018-08-22T10:53:43.747Z,26.27
2018-08-22T10:56:11.975Z,26.33
2018-08-22T10:58:40.171Z,22.57
2018-08-22T11:01:08.394Z,26.10
2018-08-22T11:03:36.804Z,26.60
2018-08-22T11:06:05.271Z,27.70
2018-08-22T11:08:33.488Z,34.00
2018-08-22T11:11:01.721Z,25.23
2018-08-22T11:13:30.888Z,26.90
2018-08-22T11:15:59.421Z,32.63
2018-08-22T11:18:28.240Z,32.50
2018-08-22T11:21:08.161Z,34.50
2018-08-22T11:23:47.701Z,36.80
2018-08-22T11:26:27.311Z,46.23
2018-08-22T11:29:07.119Z,37.30
2018-08-22T11:31:46.949Z,36.23
2018-08-22T11:34:26.830Z,31.17
2018-08-22T11:37:14.111Z,44.33
2018-08-22T11:39:44.706Z,39.30
2018-08-22T11:42:13.205Z,32.60
2018-08-22T11:44:41.716Z,35.33
2018-08-22T11:47:10.792Z,53.20
2018-08-22T11:49:39.070Z,30.87
2018-08-22T11:52:07.542Z,34.17
2018-08-22T11:54:36.246Z,35.03
2018-08-22T11:57:04.940Z,31.77
2018-08-22T11:59:33.519Z,31.27
2018-08-22T12:02:02.587Z,33.20
2018-08-22T12:04:30.859Z,31.23
2018-08-22T12:06:59.470Z,28.03
2018-08-22T12:09:28.523Z,28.73
2018-08-22T12:11:56.744Z,31.93
2018-08-22T12:14:24.952Z,32.40
2018-08-22T12:16:53.347Z,27.70
2018-08-22T12:19:21.900Z,25.37
2018-08-22T12:21:50.170Z,24.47
2018-08-22T12:24:18.886Z,30.27
2018-08-22T12:26:47.254Z,28.10
2018-08-22T12:29:15.731Z,24.63
2018-08-22T12:31:44.051Z,41.90
2018-08-22T12:34:13.629Z,28.83
2018-08-22T12:36:42.058Z,28.23
2018-08-22T12:39:11.021Z,29.70
2018-08-22T12:41:39.661Z,35.87
2018-08-22T12:44:08.144Z,37.20
2018-08-22T12:46:36.728Z,32.03
2018-08-22T12:49:05.426Z,34.27
2018-08-22T12:51:34.082Z,37.60
2018-08-22T12:54:03.008Z,27.20
2018-08-22T12:56:31.430Z,36.30
2018-08-22T12:58:59.611Z,28.40
2018-08-22T13:01:28.797Z,33.63
2018-08-22T13:03:57.342Z,29.03
2018-08-22T13:06:25.784Z,28.73
2018-08-22T13:08:54.054Z,31.80
2018-08-22T13:11:22.335Z,32.20
2018-08-22T13:13:50.522Z,34.70
2018-08-22T13:16:18.762Z,31.27
2018-08-22T13:18:46.976Z,29.63
2018-08-22T13:21:15.175Z,27.00
2018-08-22T13:23:43.394Z,28.40
2018-08-22T13:26:11.584Z,28.40
2018-08-22T13:28:39.790Z,29.17
2018-08-22T13:31:08.226Z,26.10
2018-08-22T13:33:36.472Z,26.97
2018-08-22T13:36:05.310Z,30.57
2018-08-22T13:38:34.228Z,34.47
2018-08-22T13:41:02.501Z,21.97
2018-08-22T13:43:30.731Z,29.20
2018-08-22T13:45:58.915Z,23.47
2018-08-22T13:48:27.147Z,26.40
2018-08-22T13:50:55.437Z,23.60
2018-08-22T13:53:23.800Z,22.93
2018-08-22T13:55:52.000Z,19.00
2018-08-22T13:58:20.245Z,21.77
2018-08-22T14:00:48.460Z,16.90
2018-08-22T14:03:16.690Z,16.23
2018-08-22T14:05:44.888Z,17.50
2018-08-22T14:08:13.179Z,19.10
2018-08-22T14:10:41.463Z,18.10
2018-08-22T14:13:09.671Z,24.10
2018-08-22T14:15:37.923Z,17.43
2018-08-22T14:18:05.939Z,20.33
2018-08-22T14:20:34.130Z,21.97
2018-08-22T14:23:02.342Z,19.07
2018-08-22T14:25:30.887Z,15.93
2018-08-22T14:27:59.924Z,16.43
2018-08-22T14:30:28.121Z,16.10
2018-08-22T14:32:56.361Z,17.87
2018-08-22T14:35:24.600Z,13.63
2018-08-22T14:37:52.838Z,23.73
2018-08-22T14:40:21.239Z,13.47
2018-08-22T14:42:49.460Z,12.40
2018-08-22T14:45:17.662Z,23.13
2018-08-22T14:47:45.921Z,15.23
2018-08-22T14:50:14.156Z,16.37
2018-08-22T14:52:42.356Z,17.90
2018-08-22T14:55:10.654Z,14.40
2018-08-22T14:57:38.941Z,15.20
2018-08-22T15:00:07.583Z,15.60
2018-08-22T15:02:35.915Z,15.63
2018-08-22T15:05:03.998Z,15.27
2018-08-22T15:07:32.199Z,18.77
2018-08-22T15:10:00.498Z,14.07
2018-08-22T15:12:28.747Z,16.20
2018-08-22T15:14:56.960Z,13.07
2018-08-22T15:17:31.827Z,14.47
2018-08-22T15:20:00.045Z,12.83
2018-08-22T15:22:28.272Z,11.70
2018-08-22T15:24:56.580Z,13.43
2018-08-22T15:27:24.807Z,17.60
2018-08-22T15:29:53.080Z,13.50
2018-08-22T15:32:21.280Z,14.07
2018-08-22T15:34:52.970Z,14.93
2018-08-22T15:37:21.586Z,13.23
2018-08-22T15:39:49.790Z,13.00
2018-08-22T15:42:18.024Z,10.60
2018-08-22T15:44:46.222Z,12.13
2018-08-22T15:47:14.501Z,13.20
2018-08-22T15:49:43.273Z,11.87
2018-08-22T15:52:11.511Z,17.23
2018-08-22T15:54:39.735Z,22.20
2018-08-22T15:57:07.990Z,14.07
2018-08-22T15:59:36.255Z,15.03
2018-08-22T16:02:04.503Z,14.43
2018-08-22T16:04:56.891Z,14.30
2018-08-22T16:07:25.120Z,22.13
2018-08-22T16:09:53.430Z,15.33
2018-08-22T16:12:21.648Z,14.40
2018-08-22T16:14:49.867Z,14.47
2018-08-22T16:17:18.106Z,16.20
2018-08-22T16:19:46.320Z,11.63
2018-08-22T16:22:14.558Z,15.80
2018-08-22T16:24:42.940Z,18.80
2018-08-22T16:27:11.395Z,13.13
2018-08-22T16:29:39.619Z,17.63
2018-08-22T16:32:07.851Z,16.03
2018-08-22T16:34:36.066Z,18.77
2018-08-22T16:37:04.274Z,15.87
2018-08-22T16:39:40.667Z,16.20
2018-08-22T16:42:09.216Z,15.33
2018-08-22T16:44:38.739Z,21.47
2018-08-22T16:47:07.107Z,15.70
2018-08-22T16:49:35.622Z,14.90
2018-08-22T16:52:04.129Z,16.03
2018-08-22T16:54:32.835Z,15.10
2018-08-22T16:57:01.062Z,17.70
2018-08-22T16:59:29.304Z,19.90
2018-08-22T17:01:57.705Z,22.07
2018-08-22T17:04:26.204Z,23.03
2018-08-22T17:06:54.783Z,17.50
2018-08-22T17:09:23.334Z,23.60
2018-08-22T17:11:51.538Z,14.67
2018-08-22T17:14:19.727Z,21.17
2018-08-22T17:16:47.950Z,17.10
2018-08-22T17:19:16.742Z,23.40
2018-08-22T17:21:44.991Z,16.70
2018-08-22T17:24:13.379Z,30.00
2018-08-22T17:26:41.589Z,20.80
2018-08-22T17:29:10.008Z,25.43
2018-08-22T17:31:38.213Z,17.63
2018-08-22T17:34:06.464Z,21.73
2018-08-22T17:36:34.694Z,22.03
2018-08-22T17:39:03.223Z,21.57
2018-08-22T17:41:31.426Z,20.73
2018-08-22T17:44:03.154Z,23.07
2018-08-22T17:46:32.764Z,19.57
2018-08-22T17:49:01.005Z,19.17
2018-08-22T17:51:29.239Z,17.40
2018-08-22T17:53:57.467Z,22.47
2018-08-22T17:56:26.790Z,18.57
2018-08-22T17:58:55.989Z,16.17
2018-08-22T18:01:24.596Z,18.67
2018-08-22T18:03:55.390Z,19.23
2018-08-22T18:06:23.681Z,26.43
2018-08-22T18:08:51.870Z,31.00
2018-08-22T18:11:20.347Z,18.40
2018-08-22T18:13:48.792Z,20.17
2018-08-22T18:16:16.967Z,20.83
2018-08-22T18:18:45.419Z,26.33
2018-08-22T18:21:13.639Z,20.40
2018-08-22T18:23:47.067Z,26.47
2018-08-22T18:26:16.343Z,26.77
2018-08-22T18:28:44.723Z,25.40
2018-08-22T18:31:12.919Z,23.73
2018-08-22T18:33:54.927Z,25.50
2018-08-22T18:36:23.757Z,22.30
2018-08-22T18:39:23.670Z,34.00
2018-08-22T18:41:51.891Z,26.13
2018-08-22T18:44:20.146Z,25.00
2018-08-22T18:46:48.482Z,30.33
2018-08-22T18:49:16.658Z,31.20
2018-08-22T18:51:46.425Z,27.13
2018-08-22T18:54:14.611Z,28.27
2018-08-22T18:56:42.815Z,33.33
2018-08-22T18:59:21.795Z,27.27
2018-08-22T19:01:50.224Z,32.07
2018-08-22T19:04:18.571Z,35.20
2018-08-22T19:06:46.771Z,25.97
2018-08-22T19:09:15.048Z,25.90
2018-08-22T19:11:43.275Z,31.80
2018-08-22T19:14:12.047Z,38.13
2018-08-22T19:16:40.855Z,25.83
2018-08-22T19:19:10.048Z,32.93
2018-08-22T19:21:38.656Z,36.67
2018-08-22T19:24:09.068Z,27.37
2018-08-22T19:26:37.339Z,31.60
2018-08-22T19:29:07.162Z,26.97
2018-08-22T19:31:39.246Z,26.73
2018-08-22T19:34:08.363Z,38.40
2018-08-22T19:36:37.871Z,33.37
2018-08-22T19:39:07.760Z,35.67
2018-08-22T19:41:36.703Z,29.83
2018-08-22T19:44:06.974Z,30.33
2018-08-22T19:46:37.518Z,27.33
2018-08-22T19:49:06.239Z,28.93
2018-08-22T19:51:34.992Z,30.10
2018-08-22T19:54:05.496Z,30.33
2018-08-22T19:56:34.706Z,28.43
2018-08-22T19:59:04.272Z,34.67
2018-08-22T20:01:34.698Z,28.93
2018-08-22T20:04:03.865Z,26.87
2018-08-22T20:06:32.417Z,29.77
2018-08-22T20:09:01.993Z,26.97
2018-08-22T20:11:32.480Z,28.37
2018-08-22T20:14:03.085Z,31.70
2018-08-22T20:16:31.453Z,32.40
2018-08-22T20:19:00.907Z,36.03
2018-08-22T20:21:30.950Z,37.43
2018-08-22T20:23:59.615Z,29.77
2018-08-22T20:26:28.328Z,30.43
2018-08-22T20:28:57.787Z,33.90
2018-08-22T20:31:26.061Z,32.10
2018-08-22T20:34:02.957Z,28.67
2018-08-22T20:36:31.670Z,32.60
2018-08-22T20:39:02.985Z,35.93
2018-08-22T20:41:31.226Z,32.03
2018-08-22T20:43:59.463Z,39.93
2018-08-22T20:46:27.701Z,36.37
2018-08-22T20:48:55.943Z,32.83
2018-08-22T20:51:24.163Z,45.93
2018-08-22T20:53:56.654Z,35.00
2018-08-22T20:56:24.872Z,33.33
2018-08-22T20:58:53.089Z,37.40
2018-08-22T21:01:21.353Z,35.00
2018-08-22T21:03:50.481Z,39.80
2018-08-22T21:06:18.696Z,32.83
2018-08-22T21:08:46.975Z,36.73
2018-08-22T21:11:15.165Z,34.13
2018-08-22T21:13:43.447Z,39.20
2018-08-22T21:16:11.617Z,62.37
2018-08-22T21:18:39.910Z,35.53
2018-08-22T21:21:38.799Z,43.00
2018-08-22T21:24:07.014Z,44.33
2018-08-22T21:26:39.640Z,36.93
2018-08-22T21:29:07.911Z,42.23
2018-08-22T21:31:36.527Z,38.67
2018-08-22T21:34:13.044Z,44.50
2018-08-22T21:36:43.233Z,41.80
2018-08-22T21:39:16.749Z,50.90
2018-08-22T21:41:45.820Z,53.07
2018-08-22T21:44:16.491Z,52.00
2018-08-22T21:46:44.699Z,57.63
2018-08-22T21:49:14.983Z,55.00
2018-08-22T21:51:43.658Z,45.73
2018-08-22T21:54:12.656Z,53.90
2018-08-22T21:56:41.251Z,48.80
2018-08-22T21:59:10.280Z,45.00
2018-08-22T22:02:11.763Z,43.90
2018-08-22T22:04:41.224Z,50.60
2018-08-22T22:07:10.692Z,56.30
2018-08-22T22:09:39.571Z,53.00
2018-08-22T22:12:13.230Z,55.23
2018-08-22T22:14:43.540Z,54.83
2018-08-22T22:17:11.768Z,51.03
2018-08-22T22:19:40.124Z,52.70
2018-08-22T22:22:08.368Z,49.23
2018-08-22T22:24:57.275Z,50.47
2018-08-22T22:27:26.047Z,59.80
2018-08-22T22:30:01.657Z,57.10
2018-08-22T22:32:30.120Z,53.70
2018-08-22T22:34:58.357Z,56.90
2018-08-22T22:37:26.667Z,52.27
2018-08-22T22:39:54.898Z,56.33
2018-08-22T22:42:26.121Z,64.30
2018-08-22T22:44:55.223Z,60.30
2018-08-22T22:52:24.131Z,58.93
2018-08-22T22:54:54.679Z,51.70
2018-08-22T22:57:22.943Z,50.80
2018-08-22T22:59:51.700Z,57.03
2018-08-22T23:02:23.347Z,57.07
2018-08-22T23:04:52.479Z,56.97
2018-08-22T23:07:26.872Z,58.33
2018-08-22T23:09:56.317Z,59.93
2018-08-22T23:12:40.471Z,58.03
2018-08-22T23:15:09.936Z,59.10
2018-08-22T23:17:38.455Z,55.63
2018-08-22T23:20:15.691Z,60.43
2018-08-22T23:22:43.904Z,61.30
2018-08-22T23:25:12.143Z,57.50
2018-08-22T23:27:40.879Z,63.00
2018-08-22T23:30:09.350Z,63.60
2018-08-22T23:32:38.330Z,60.03
2018-08-22T23:35:20.145Z,65.23
2018-08-22T23:37:51.884Z,60.63
2018-08-22T23:40:20.907Z,61.93
2018-08-22T23:42:49.120Z,63.73
2018-08-22T23:45:17.503Z,67.50
2018-08-22T23:47:45.709Z,67.40
2018-08-22T23:50:14.328Z,58.90
2018-08-22T23:52:54.511Z,50.33
2018-08-22T23:55:23.583Z,58.47
2018-08-22T23:57:55.519Z,59.93
